createdAt,value
2022-11-26T00:01:51.058Z,176.93
2022-11-26T00:03:53.343Z,185.20
2022-11-26T00:05:57.343Z,192.40
2022-11-26T00:08:00.473Z,196.07
2022-11-26T00:10:02.493Z,175.10
2022-11-26T00:12:36.445Z,167.52
2022-11-26T00:14:38.192Z,174.45
2022-11-26T00:16:39.830Z,176.07
2022-11-26T00:18:42.506Z,180.18
2022-11-26T00:20:45.721Z,185.93
2022-11-26T00:22:51.434Z,183.80
2022-11-26T00:24:53.662Z,177.55
2022-11-26T00:26:57.641Z,175.27
2022-11-26T00:29:00.627Z,183.23
2022-11-26T00:31:11.521Z,177.60
2022-11-26T00:33:12.974Z,195.20
2022-11-26T00:35:15.233Z,173.27
2022-11-26T00:37:22.941Z,171.80
2022-11-26T00:39:24.629Z,159.93
2022-11-26T00:41:31.677Z,153.90
2022-11-26T00:43:33.223Z,146.30
2022-11-26T00:45:34.831Z,142.13
2022-11-26T00:47:36.268Z,142.85
2022-11-26T00:49:38.080Z,163.70
2022-11-26T00:51:40.022Z,199.43
2022-11-26T00:53:42.390Z,198.65
2022-11-26T00:55:49.360Z,238.30
2022-11-26T00:57:50.834Z,218.20
2022-11-26T00:59:52.366Z,228.00
2022-11-26T01:01:53.919Z,205.07
2022-11-26T01:03:55.509Z,236.20
2022-11-26T01:05:58.788Z,190.38
2022-11-26T01:08:06.466Z,155.88
2022-11-26T01:10:19.689Z,145.63
2022-11-26T01:12:21.130Z,126.10
2022-11-26T01:14:23.355Z,123.85
2022-11-26T01:16:28.127Z,135.70
2022-11-26T01:18:34.871Z,114.05
2022-11-26T01:20:36.288Z,111.53
2022-11-26T01:22:37.718Z,108.25
2022-11-26T01:24:39.384Z,105.55
2022-11-26T01:26:43.837Z,109.47
2022-11-26T01:28:45.882Z,121.30
2022-11-26T01:30:47.384Z,132.82
2022-11-26T01:32:49.539Z,130.32
2022-11-26T01:34:50.972Z,177.73
2022-11-26T01:36:52.461Z,246.43
2022-11-26T01:38:55.306Z,221.75
2022-11-26T01:41:12.476Z,178.73
2022-11-26T01:43:23.509Z,132.30
2022-11-26T01:45:25.133Z,123.88
2022-11-26T01:47:29.985Z,160.27
2022-11-26T01:49:34.766Z,158.77
2022-11-26T01:51:36.330Z,153.38
2022-11-26T01:54:00.185Z,149.48
2022-11-26T01:56:21.883Z,133.68
2022-11-26T01:58:39.538Z,139.23
2022-11-26T02:00:42.254Z,115.60
2022-11-26T02:02:44.039Z,118.85
2022-11-26T02:04:55.265Z,144.07
2022-11-26T02:06:57.569Z,132.45
2022-11-26T02:09:02.038Z,118.80
2022-11-26T02:11:15.429Z,116.05
2022-11-26T02:13:16.986Z,121.38
2022-11-26T02:15:18.666Z,128.63
2022-11-26T02:17:36.266Z,128.52
2022-11-26T02:20:22.999Z,104.97
2022-11-26T02:22:30.657Z,100.38
2022-11-26T02:24:48.998Z,100.18
2022-11-26T02:27:09.262Z,96.97
2022-11-26T02:29:37.046Z,96.18
2022-11-26T02:32:06.377Z,111.45
2022-11-26T02:34:15.026Z,106.05
2022-11-26T02:36:31.745Z,99.00
2022-11-26T02:38:38.044Z,95.20
2022-11-26T02:40:39.679Z,98.65
2022-11-26T02:42:41.374Z,97.20
2022-11-26T02:44:44.904Z,99.57
2022-11-26T02:46:49.456Z,104.78
2022-11-26T02:48:52.814Z,107.40
2022-11-26T02:51:00.554Z,113.97
2022-11-26T02:53:03.881Z,127.38
2022-11-26T02:55:07.687Z,126.00
2022-11-26T02:57:13.753Z,122.28
2022-11-26T02:59:16.278Z,340.95
2022-11-26T03:01:29.515Z,131.10
2022-11-26T03:03:35.297Z,97.88
2022-11-26T03:05:40.586Z,88.85
2022-11-26T03:07:43.577Z,87.53
2022-11-26T03:09:57.522Z,86.47
2022-11-26T03:11:59.079Z,87.03
2022-11-26T03:14:00.598Z,91.13
2022-11-26T03:16:02.108Z,118.35
2022-11-26T03:18:03.714Z,219.07
2022-11-26T03:20:05.960Z,94.97
2022-11-26T03:22:08.096Z,89.13
2022-11-26T03:24:09.600Z,93.50
2022-11-26T03:26:11.028Z,101.72
2022-11-26T03:28:12.656Z,88.13
2022-11-26T03:30:14.449Z,83.50
2022-11-26T03:32:15.923Z,83.22
2022-11-26T03:34:17.450Z,78.78
2022-11-26T03:36:18.930Z,82.05
2022-11-26T03:38:20.442Z,78.28
2022-11-26T03:40:22.026Z,78.05
2022-11-26T03:42:23.604Z,76.20
2022-11-26T03:44:25.157Z,83.25
2022-11-26T03:46:26.632Z,84.38
2022-11-26T03:48:28.105Z,81.35
2022-11-26T03:50:29.545Z,228.63
2022-11-26T03:52:31.015Z,136.25
2022-11-26T03:54:32.554Z,111.40
2022-11-26T03:56:33.970Z,96.10
2022-11-26T03:58:35.569Z,90.20
2022-11-26T04:00:37.098Z,84.72
2022-11-26T04:02:38.623Z,84.43
2022-11-26T04:04:40.392Z,85.93
2022-11-26T04:06:42.115Z,85.28
2022-11-26T04:08:44.014Z,90.85
2022-11-26T04:10:45.458Z,96.53
2022-11-26T04:12:46.901Z,82.32
2022-11-26T04:14:48.374Z,86.13
2022-11-26T04:16:49.870Z,86.88
2022-11-26T04:18:51.431Z,89.68
2022-11-26T04:20:53.575Z,92.20
2022-11-26T04:22:55.216Z,87.43
2022-11-26T04:24:56.711Z,87.43
2022-11-26T04:26:58.167Z,103.43
2022-11-26T04:28:59.597Z,90.78
2022-11-26T04:31:01.173Z,92.45
2022-11-26T04:33:02.657Z,86.95
2022-11-26T04:35:04.447Z,84.35
2022-11-26T04:37:05.912Z,94.93
2022-11-26T04:39:07.498Z,92.22
2022-11-26T04:41:09.039Z,95.05
2022-11-26T04:43:10.497Z,98.97
2022-11-26T04:45:11.940Z,112.00
2022-11-26T04:47:13.427Z,100.68
2022-11-26T04:49:15.191Z,101.88
2022-11-26T04:51:16.655Z,101.60
2022-11-26T04:53:21.839Z,100.40
2022-11-26T04:55:23.835Z,91.88
2022-11-26T04:57:26.559Z,91.20
2022-11-26T04:59:28.162Z,87.32
2022-11-26T05:01:29.700Z,100.30
2022-11-26T05:03:31.325Z,109.25
2022-11-26T05:05:32.808Z,100.97
2022-11-26T05:07:34.713Z,103.20
2022-11-26T05:09:36.214Z,98.07
2022-11-26T05:11:37.741Z,91.63
2022-11-26T05:13:39.239Z,94.63
2022-11-26T05:15:40.798Z,96.75
2022-11-26T05:17:42.254Z,89.80
2022-11-26T05:19:43.991Z,88.25
2022-11-26T05:21:45.512Z,85.78
2022-11-26T05:23:46.975Z,88.05
2022-11-26T05:25:50.413Z,83.93
2022-11-26T05:27:51.895Z,93.60
2022-11-26T05:29:53.378Z,97.57
2022-11-26T05:31:54.877Z,91.53
2022-11-26T05:33:56.510Z,94.70
2022-11-26T05:35:58.001Z,93.45
2022-11-26T05:37:59.498Z,84.25
2022-11-26T05:40:00.995Z,90.05
2022-11-26T05:42:07.679Z,85.85
2022-11-26T05:44:10.610Z,84.15
2022-11-26T05:46:16.314Z,79.55
2022-11-26T05:48:17.857Z,79.43
2022-11-26T05:50:19.426Z,83.15
2022-11-26T05:52:21.647Z,91.40
2022-11-26T05:54:23.134Z,90.60
2022-11-26T05:56:24.907Z,85.40
2022-11-26T05:58:26.572Z,81.32
2022-11-26T06:00:28.062Z,78.15
2022-11-26T06:02:29.578Z,82.50
2022-11-26T06:04:31.179Z,91.75
2022-11-26T06:06:32.693Z,85.60
2022-11-26T06:08:34.284Z,92.13
2022-11-26T06:10:35.770Z,95.30
2022-11-26T06:12:37.295Z,91.97
2022-11-26T06:14:42.949Z,83.45
2022-11-26T06:16:44.999Z,86.13
2022-11-26T06:18:46.575Z,92.55
2022-11-26T06:20:48.046Z,81.85
2022-11-26T06:22:49.500Z,78.65
2022-11-26T06:24:50.969Z,75.43
2022-11-26T06:26:52.380Z,72.82
2022-11-26T06:28:54.096Z,73.18
2022-11-26T06:30:55.529Z,76.10
2022-11-26T06:32:57.099Z,74.90
2022-11-26T06:34:58.589Z,70.28
2022-11-26T06:37:00.041Z,76.55
2022-11-26T06:39:01.501Z,79.57
2022-11-26T06:41:07.795Z,107.82
2022-11-26T06:43:09.347Z,83.10
2022-11-26T06:45:11.998Z,81.03
2022-11-26T06:47:14.138Z,80.22
2022-11-26T06:49:15.653Z,81.75
2022-11-26T06:51:20.488Z,92.25
2022-11-26T06:53:22.007Z,91.20
2022-11-26T06:55:23.445Z,91.45
2022-11-26T06:57:24.876Z,86.45
2022-11-26T06:59:26.388Z,88.18
2022-11-26T07:01:28.116Z,91.82
2022-11-26T07:03:33.373Z,93.72
2022-11-26T07:05:36.469Z,99.28
2022-11-26T07:07:38.656Z,107.13
2022-11-26T07:09:40.566Z,86.43
2022-11-26T07:11:42.748Z,92.10
2022-11-26T07:13:44.946Z,92.57
2022-11-26T07:15:46.513Z,100.57
2022-11-26T07:17:47.985Z,112.95
2022-11-26T07:19:49.488Z,103.22
2022-11-26T07:21:50.930Z,104.32
2022-11-26T07:23:52.519Z,116.63
2022-11-26T07:25:53.958Z,109.57
2022-11-26T07:27:55.576Z,94.57
2022-11-26T07:29:57.013Z,69.80
2022-11-26T07:31:58.540Z,58.88
2022-11-26T07:34:00.016Z,55.63
2022-11-26T07:36:03.584Z,53.95
2022-11-26T07:38:05.076Z,52.08
2022-11-26T07:40:07.754Z,52.53
2022-11-26T07:42:09.149Z,53.28
2022-11-26T07:44:14.463Z,52.38
2022-11-26T07:46:19.889Z,57.67
2022-11-26T07:48:21.327Z,62.67
2022-11-26T07:50:22.827Z,59.78
2022-11-26T07:52:24.339Z,59.58
2022-11-26T07:54:25.776Z,60.65
2022-11-26T07:56:27.397Z,58.55
2022-11-26T07:58:28.845Z,57.50
2022-11-26T08:00:30.309Z,50.90
2022-11-26T08:02:31.844Z,53.83
2022-11-26T08:04:34.029Z,54.42
2022-11-26T08:06:35.567Z,52.05
2022-11-26T08:08:37.397Z,52.58
2022-11-26T08:10:40.028Z,52.10
2022-11-26T08:12:41.513Z,50.22
2022-11-26T08:14:43.262Z,51.47
2022-11-26T08:16:44.919Z,51.20
2022-11-26T08:18:46.380Z,50.53
2022-11-26T08:20:58.024Z,51.15
2022-11-26T08:22:59.477Z,50.47
2022-11-26T08:25:00.956Z,51.65
2022-11-26T08:27:08.788Z,54.47
2022-11-26T08:29:10.226Z,55.75
2022-11-26T08:31:14.074Z,54.80
2022-11-26T08:33:15.830Z,46.78
2022-11-26T08:35:17.402Z,47.53
2022-11-26T08:37:21.957Z,56.20
2022-11-26T08:39:23.532Z,70.32
2022-11-26T08:41:25.412Z,63.92
2022-11-26T08:43:45.100Z,70.97
2022-11-26T08:45:55.792Z,64.22
2022-11-26T08:47:57.245Z,42.37
2022-11-26T08:49:58.697Z,55.35
2022-11-26T08:52:00.469Z,57.85
2022-11-26T08:54:02.542Z,60.95
2022-11-26T08:56:06.869Z,51.05
2022-11-26T08:58:08.491Z,63.00
2022-11-26T09:00:10.679Z,63.25
2022-11-26T09:02:17.369Z,58.28
2022-11-26T09:04:23.005Z,64.15
2022-11-26T09:06:26.058Z,56.58
2022-11-26T09:08:27.935Z,55.60
2022-11-26T09:10:29.374Z,50.25
2022-11-26T09:12:30.916Z,56.67
2022-11-26T09:14:38.208Z,70.30
2022-11-26T09:16:43.840Z,53.60
2022-11-26T09:18:45.349Z,42.25
2022-11-26T09:20:46.822Z,48.78
2022-11-26T09:22:48.306Z,60.13
2022-11-26T09:24:49.751Z,128.38
2022-11-26T09:26:51.927Z,88.38
2022-11-26T09:28:53.542Z,66.78
2022-11-26T09:30:58.790Z,65.55
2022-11-26T09:33:00.302Z,58.88
2022-11-26T09:35:01.806Z,45.25
2022-11-26T09:37:03.391Z,59.92
2022-11-26T09:39:29.806Z,54.45
2022-11-26T09:41:50.443Z,49.35
2022-11-26T09:44:22.585Z,50.50
2022-11-26T09:46:40.959Z,36.85
2022-11-26T09:48:55.474Z,47.35
2022-11-26T09:51:04.866Z,43.13
2022-11-26T09:53:21.261Z,37.28
2022-11-26T09:55:26.294Z,44.60
2022-11-26T09:57:35.555Z,40.13
2022-11-26T09:59:39.467Z,36.85
2022-11-26T10:01:42.336Z,50.80
2022-11-26T10:03:44.446Z,47.10
2022-11-26T10:05:55.873Z,37.33
2022-11-26T10:08:36.129Z,45.03
2022-11-26T10:11:02.495Z,35.17
2022-11-26T10:13:20.907Z,42.15
2022-11-26T10:16:11.537Z,45.80
2022-11-26T10:18:44.549Z,35.97
2022-11-26T10:21:18.206Z,41.63
2022-11-26T10:23:40.332Z,36.97
2022-11-26T10:25:51.540Z,46.33
2022-11-26T10:27:55.691Z,49.38
2022-11-26T10:30:07.340Z,60.83
2022-11-26T10:32:16.206Z,65.25
2022-11-26T10:34:20.939Z,33.15
2022-11-26T10:36:35.238Z,47.30
2022-11-26T10:38:37.167Z,59.13
2022-11-26T10:40:38.666Z,45.90
2022-11-26T10:42:47.673Z,39.00
2022-11-26T10:44:52.003Z,48.72
2022-11-26T10:46:53.510Z,32.55
2022-11-26T10:49:15.584Z,31.50
2022-11-26T10:51:26.703Z,27.77
2022-11-26T10:53:31.167Z,51.63
2022-11-26T10:55:41.569Z,52.75
2022-11-26T10:57:47.746Z,120.07
2022-11-26T10:59:52.017Z,100.97
2022-11-26T11:01:57.621Z,179.48
2022-11-26T11:04:08.618Z,53.00
2022-11-26T11:06:43.445Z,38.55
2022-11-26T11:08:47.114Z,37.90
2022-11-26T11:11:00.382Z,60.10
2022-11-26T11:13:12.755Z,47.00
2022-11-26T11:15:23.873Z,51.05
2022-11-26T11:17:35.359Z,58.22
2022-11-26T11:19:36.846Z,56.92
2022-11-26T11:21:43.840Z,61.65
2022-11-26T11:26:17.796Z,55.80
2022-11-26T11:28:21.702Z,50.78
2022-11-26T11:30:28.832Z,50.55
2022-11-26T11:32:37.019Z,35.85
2022-11-26T11:34:42.570Z,38.35
2022-11-26T11:36:53.114Z,33.67
2022-11-26T11:39:00.183Z,42.75
2022-11-26T11:41:04.984Z,44.00
2022-11-26T11:43:07.817Z,45.55
2022-11-26T11:45:23.459Z,42.60
2022-11-26T11:47:36.559Z,47.22
2022-11-26T11:50:15.684Z,43.28
2022-11-26T11:52:38.741Z,47.45
2022-11-26T11:55:21.951Z,39.80
2022-11-26T11:57:32.579Z,38.30
2022-11-26T12:00:18.096Z,39.92
2022-11-26T12:03:01.355Z,40.88
2022-11-26T12:05:27.325Z,43.80
2022-11-26T12:07:41.288Z,52.97
2022-11-26T12:10:03.239Z,49.35
2022-11-26T12:12:15.853Z,46.17
2022-11-26T12:14:34.778Z,50.80
2022-11-26T12:16:40.363Z,36.10
2022-11-26T12:18:57.921Z,54.17
2022-11-26T12:21:07.763Z,44.92
2022-11-26T12:25:35.321Z,51.10
2022-11-26T12:27:58.041Z,53.80
2022-11-26T12:30:08.678Z,55.55
2022-11-26T12:32:34.054Z,51.58
2022-11-26T12:34:41.558Z,56.92
2022-11-26T12:36:51.129Z,64.05
2022-11-26T12:39:02.244Z,65.57
2022-11-26T12:41:11.295Z,72.15
2022-11-26T12:43:25.791Z,39.50
2022-11-26T12:45:42.523Z,61.83
2022-11-26T12:47:53.587Z,58.10
2022-11-26T12:50:22.791Z,53.92
2022-11-26T12:52:47.236Z,63.95
2022-11-26T12:55:25.207Z,64.05
2022-11-26T12:57:38.552Z,66.07
2022-11-26T12:59:59.901Z,76.85
2022-11-26T13:02:18.331Z,84.97
2022-11-26T13:04:37.288Z,61.28
2022-11-26T13:07:07.040Z,76.95
2022-11-26T13:09:27.782Z,75.53
2022-11-26T13:11:52.700Z,101.25
2022-11-26T13:14:17.682Z,66.07
2022-11-26T13:16:36.926Z,59.22
2022-11-26T13:18:43.908Z,65.15
2022-11-26T13:21:11.683Z,67.55
2022-11-26T13:23:25.062Z,68.72
2022-11-26T13:25:55.630Z,57.85
2022-11-26T13:28:09.245Z,69.40
2022-11-26T13:30:21.498Z,81.00
2022-11-26T13:32:34.933Z,76.40
2022-11-26T13:34:41.871Z,59.13
2022-11-26T13:37:10.469Z,45.03
2022-11-26T13:39:31.100Z,58.28
2022-11-26T13:41:54.587Z,54.10
2022-11-26T13:44:27.470Z,61.83
2022-11-26T13:46:41.361Z,59.35
2022-11-26T13:49:02.377Z,61.00
2022-11-26T13:51:21.466Z,59.80
2022-11-26T13:53:28.672Z,62.97
2022-11-26T13:56:00.647Z,64.05
2022-11-26T13:58:06.268Z,65.93
2022-11-26T14:00:09.280Z,69.90
2022-11-26T14:02:34.550Z,77.72
2022-11-26T14:04:44.930Z,81.38
2022-11-26T14:07:04.797Z,71.28
2022-11-26T14:09:06.782Z,79.45
2022-11-26T14:11:09.164Z,67.90
2022-11-26T14:13:12.497Z,85.88
2022-11-26T14:15:42.024Z,88.93
2022-11-26T14:17:56.942Z,68.50
2022-11-26T14:19:59.696Z,109.93
2022-11-26T14:22:03.687Z,59.53
2022-11-26T14:24:05.362Z,64.07
2022-11-26T14:26:09.916Z,30.77
2022-11-26T14:28:11.390Z,55.03
2022-11-26T14:30:16.813Z,101.35
2022-11-26T14:32:22.282Z,47.40
2022-11-26T14:34:33.800Z,49.80
2022-11-26T14:36:35.243Z,82.70
2022-11-26T14:38:36.694Z,90.18
2022-11-26T14:40:38.784Z,110.13
2022-11-26T14:42:41.135Z,128.27
2022-11-26T14:44:42.850Z,91.93
2022-11-26T14:46:48.832Z,69.97
2022-11-26T14:48:50.989Z,57.65
2022-11-26T14:50:54.751Z,63.63
2022-11-26T14:53:01.189Z,58.70
2022-11-26T14:55:16.311Z,66.68
2022-11-26T14:57:26.172Z,84.30
2022-11-26T14:59:27.775Z,127.18
2022-11-26T15:01:29.759Z,90.30
2022-11-26T15:03:31.542Z,78.95
2022-11-26T15:05:35.412Z,233.18
2022-11-26T15:07:37.072Z,95.93
2022-11-26T15:09:38.578Z,90.28
2022-11-26T15:11:45.018Z,89.28
2022-11-26T15:13:47.221Z,72.25
2022-11-26T15:15:53.476Z,80.85
2022-11-26T15:18:02.531Z,84.68
2022-11-26T15:20:08.424Z,75.45
2022-11-26T15:22:33.258Z,68.60
2022-11-26T15:24:35.219Z,69.75
2022-11-26T15:26:36.929Z,70.75
2022-11-26T15:28:40.938Z,71.35
2022-11-26T15:30:59.485Z,94.15
2022-11-26T15:33:13.153Z,58.55
2022-11-26T15:35:16.256Z,75.82
2022-11-26T15:37:17.832Z,84.20
2022-11-26T15:39:25.336Z,72.68
2022-11-26T15:41:27.010Z,99.50
2022-11-26T15:43:35.865Z,93.38
2022-11-26T15:45:40.110Z,66.97
2022-11-26T15:47:46.705Z,84.28
2022-11-26T15:49:54.828Z,88.20
2022-11-26T15:51:59.976Z,80.47
2022-11-26T15:54:03.226Z,77.72
2022-11-26T15:56:07.900Z,95.93
2022-11-26T15:58:15.938Z,88.85
2022-11-26T16:00:34.071Z,90.30
2022-11-26T16:02:38.795Z,75.00
2022-11-26T16:04:45.407Z,78.60
2022-11-26T16:06:46.909Z,74.28
2022-11-26T16:09:02.457Z,72.40
2022-11-26T16:11:03.856Z,74.93
2022-11-26T16:13:29.602Z,67.70
2022-11-26T16:15:31.146Z,70.07
2022-11-26T16:17:32.868Z,95.80
2022-11-26T16:19:34.444Z,77.70
2022-11-26T16:21:37.296Z,197.50
2022-11-26T16:23:39.043Z,205.00
2022-11-26T16:25:40.519Z,120.18
2022-11-26T16:27:45.233Z,107.07
2022-11-26T16:29:49.738Z,53.85
2022-11-26T16:31:51.497Z,47.28
2022-11-26T16:33:52.959Z,47.97
2022-11-26T16:35:54.980Z,40.75
2022-11-26T16:37:56.730Z,34.88
2022-11-26T16:40:04.394Z,32.10
2022-11-26T16:42:14.199Z,35.58
2022-11-26T16:46:19.723Z,29.23
2022-11-26T16:48:23.178Z,29.20
2022-11-26T16:50:26.956Z,29.40
2022-11-26T16:52:28.914Z,29.30
2022-11-26T16:54:30.490Z,23.55
2022-11-26T16:56:37.462Z,29.08
2022-11-26T16:58:39.007Z,23.63
2022-11-26T17:00:41.101Z,26.65
2022-11-26T17:02:43.018Z,30.05
2022-11-26T17:04:45.642Z,26.27
2022-11-26T17:06:47.188Z,29.52
2022-11-26T17:08:50.018Z,27.23
2022-11-26T17:10:51.761Z,26.30
2022-11-26T17:12:53.234Z,38.05
2022-11-26T17:14:54.758Z,26.73
2022-11-26T17:16:57.184Z,33.80
2022-11-26T17:18:58.942Z,31.27
2022-11-26T17:21:00.370Z,42.15
2022-11-26T17:23:02.105Z,31.75
2022-11-26T17:25:04.058Z,29.73
2022-11-26T17:27:14.334Z,27.60
2022-11-26T17:29:15.825Z,24.38
2022-11-26T17:31:18.004Z,32.95
2022-11-26T17:33:19.652Z,31.27
2022-11-26T17:35:21.095Z,29.98
2022-11-26T17:37:28.360Z,30.98
2022-11-26T17:39:29.970Z,27.95
2022-11-26T17:41:31.405Z,35.63
2022-11-26T17:43:32.835Z,30.73
2022-11-26T17:45:34.396Z,34.72
2022-11-26T17:47:35.880Z,41.55
2022-11-26T17:49:37.835Z,31.80
2022-11-26T17:51:41.710Z,44.80
2022-11-26T17:53:43.862Z,25.58
2022-11-26T17:55:45.346Z,29.83
2022-11-26T17:57:46.870Z,37.20
2022-11-26T17:59:48.441Z,28.77
2022-11-26T18:01:50.046Z,40.83
2022-11-26T18:03:52.794Z,41.28
2022-11-26T18:05:54.286Z,26.73
2022-11-26T18:07:55.824Z,27.63
2022-11-26T18:09:57.940Z,30.77
2022-11-26T18:12:00.277Z,41.55
2022-11-26T18:14:02.924Z,39.72
2022-11-26T18:16:04.603Z,32.38
2022-11-26T18:18:07.474Z,31.63
2022-11-26T18:20:10.166Z,28.73
2022-11-26T18:22:16.761Z,31.00
2022-11-26T18:24:18.330Z,24.92
2022-11-26T18:26:19.770Z,30.23
2022-11-26T18:28:21.314Z,25.27
2022-11-26T18:30:23.950Z,23.30
2022-11-26T18:32:25.613Z,23.05
2022-11-26T18:34:27.208Z,18.67
2022-11-26T18:36:28.705Z,20.58
2022-11-26T18:38:32.989Z,22.65
2022-11-26T18:40:34.461Z,20.70
2022-11-26T18:42:37.807Z,23.92
2022-11-26T18:44:39.914Z,26.45
2022-11-26T18:46:41.350Z,22.88
2022-11-26T18:48:45.821Z,22.02
2022-11-26T18:50:58.842Z,25.80
2022-11-26T18:53:00.342Z,19.25
2022-11-26T18:55:04.819Z,16.52
2022-11-26T18:57:06.297Z,21.15
2022-11-26T18:59:09.522Z,23.00
2022-11-26T19:01:22.626Z,21.65
2022-11-26T19:03:25.918Z,28.20
2022-11-26T19:05:27.401Z,34.58
2022-11-26T19:07:28.985Z,35.92
2022-11-26T19:09:30.441Z,32.75
2022-11-26T19:11:32.166Z,32.72
2022-11-26T19:13:33.606Z,51.75
2022-11-26T19:15:35.402Z,44.03
2022-11-26T19:17:37.231Z,41.15
2022-11-26T19:19:39.286Z,35.70
2022-11-26T19:21:42.075Z,34.63
2022-11-26T19:23:43.602Z,53.50
2022-11-26T19:25:45.721Z,37.42
2022-11-26T19:27:48.657Z,40.33
2022-11-26T19:29:50.078Z,35.42
2022-11-26T19:31:52.098Z,33.40
2022-11-26T19:33:55.268Z,32.85
2022-11-26T19:35:57.101Z,40.15
2022-11-26T19:37:58.642Z,36.38
2022-11-26T19:40:00.115Z,34.17
2022-11-26T19:42:01.699Z,35.80
2022-11-26T19:44:05.384Z,34.88
2022-11-26T19:46:12.567Z,46.83
2022-11-26T19:48:14.677Z,37.83
2022-11-26T19:50:16.761Z,38.83
2022-11-26T19:52:18.287Z,38.15
2022-11-26T19:54:19.840Z,57.58
2022-11-26T19:56:24.706Z,42.53
2022-11-26T19:58:27.374Z,39.97
2022-11-26T20:00:28.778Z,39.17
2022-11-26T20:02:30.439Z,42.03
2022-11-26T20:04:31.905Z,43.50
2022-11-26T20:06:35.356Z,44.28
2022-11-26T20:08:38.550Z,44.97
2022-11-26T20:10:40.219Z,41.83
2022-11-26T20:12:41.651Z,41.85
2022-11-26T20:14:43.124Z,41.08
2022-11-26T20:16:44.787Z,39.58
2022-11-26T20:18:47.605Z,36.88
2022-11-26T20:20:59.996Z,48.65
2022-11-26T20:23:01.606Z,56.90
2022-11-26T20:25:03.871Z,48.80
2022-11-26T20:27:05.460Z,47.05
2022-11-26T20:29:10.271Z,35.22
2022-11-26T20:31:13.021Z,41.03
2022-11-26T20:33:16.242Z,39.78
2022-11-26T20:35:17.886Z,39.63
2022-11-26T20:37:19.531Z,45.65
2022-11-26T20:39:22.615Z,47.78
2022-11-26T20:41:26.401Z,57.45
2022-11-26T20:43:27.895Z,43.75
2022-11-26T20:45:29.340Z,43.20
2022-11-26T20:47:31.060Z,51.85
2022-11-26T20:49:36.030Z,41.35
2022-11-26T20:51:39.495Z,45.45
2022-11-26T20:53:42.748Z,39.15
2022-11-26T20:55:54.782Z,56.97
2022-11-26T20:57:56.249Z,82.75
2022-11-26T20:59:57.755Z,47.50
2022-11-26T21:01:59.262Z,54.22
2022-11-26T21:04:01.247Z,78.43
2022-11-26T21:06:03.300Z,76.28
2022-11-26T21:08:04.872Z,42.85
2022-11-26T21:10:08.147Z,45.45
2022-11-26T21:12:09.718Z,40.65
2022-11-26T21:14:14.955Z,38.75
2022-11-26T21:16:17.004Z,40.00
2022-11-26T21:18:18.779Z,38.20
2022-11-26T21:20:20.185Z,37.05
2022-11-26T21:22:21.715Z,38.53
2022-11-26T21:24:23.454Z,40.80
2022-11-26T21:26:26.367Z,47.42
2022-11-26T21:28:27.786Z,34.67
2022-11-26T21:30:29.329Z,36.40
2022-11-26T21:32:30.942Z,35.90
2022-11-26T21:34:32.997Z,39.78
2022-11-26T21:36:36.346Z,39.00
2022-11-26T21:38:38.488Z,37.53
2022-11-26T21:40:39.979Z,54.55
2022-11-26T21:42:41.536Z,87.53
2022-11-26T21:44:43.056Z,77.03
2022-11-26T21:46:44.561Z,60.20
2022-11-26T21:48:46.157Z,55.45
2022-11-26T21:50:47.572Z,61.95
2022-11-26T21:52:49.063Z,38.95
2022-11-26T21:54:50.705Z,38.80
2022-11-26T21:56:53.075Z,38.45
2022-11-26T21:58:59.182Z,42.97
2022-11-26T22:01:00.641Z,46.85
2022-11-26T22:03:04.078Z,57.05
2022-11-26T22:05:08.858Z,56.20
2022-11-26T22:07:10.330Z,50.88
2022-11-26T22:09:12.658Z,45.13
2022-11-26T22:11:19.988Z,43.42
2022-11-26T22:13:21.464Z,48.97
2022-11-26T22:15:22.937Z,41.92
2022-11-26T22:17:24.417Z,52.47
2022-11-26T22:19:25.964Z,45.08
2022-11-26T22:21:36.475Z,34.42
2022-11-26T22:23:38.070Z,30.02
2022-11-26T22:25:39.491Z,31.00
2022-11-26T22:27:41.034Z,28.55
2022-11-26T22:29:42.611Z,29.40
2022-11-26T22:31:44.902Z,29.27
2022-11-26T22:33:47.040Z,28.83
2022-11-26T22:35:48.520Z,29.95
2022-11-26T22:37:50.043Z,30.25
2022-11-26T22:39:53.962Z,29.88
2022-11-26T22:41:55.572Z,30.65
2022-11-26T22:43:59.649Z,31.98
2022-11-26T22:46:05.888Z,38.53
2022-11-26T22:48:07.337Z,34.28
2022-11-26T22:50:09.192Z,33.63
2022-11-26T22:52:10.979Z,32.90
2022-11-26T22:54:14.429Z,35.17
2022-11-26T22:56:16.814Z,37.17
2022-11-26T22:58:19.467Z,34.95
2022-11-26T23:00:43.712Z,36.15
2022-11-26T23:02:45.252Z,36.97
2022-11-26T23:04:46.854Z,36.45
2022-11-26T23:06:48.390Z,38.45
2022-11-26T23:08:50.497Z,41.47
2022-11-26T23:10:51.989Z,41.85
2022-11-26T23:12:53.436Z,40.00
2022-11-26T23:14:54.905Z,40.45
2022-11-26T23:16:56.359Z,38.33
2022-11-26T23:18:58.044Z,36.95
2022-11-26T23:21:07.868Z,38.58
2022-11-26T23:23:09.664Z,37.58
2022-11-26T23:25:11.274Z,44.13
2022-11-26T23:27:12.697Z,47.88
2022-11-26T23:29:14.407Z,49.10
2022-11-26T23:31:21.497Z,49.35
2022-11-26T23:33:22.996Z,50.55
2022-11-26T23:35:24.499Z,44.92
2022-11-26T23:37:25.933Z,52.70
2022-11-26T23:39:27.381Z,48.08
2022-11-26T23:41:28.894Z,49.67
2022-11-26T23:43:32.104Z,50.58
2022-11-26T23:45:33.580Z,54.38
2022-11-26T23:47:36.420Z,56.38
2022-11-26T23:49:38.274Z,63.30
2022-11-26T23:51:39.987Z,64.45
2022-11-26T23:53:43.098Z,68.75
2022-11-26T23:55:44.620Z,65.13
2022-11-26T23:57:46.073Z,62.08
2022-11-26T23:59:47.514Z,59.28
